Uniontown, Indiana
Current Conditions -  °F | °C
As of 8:55 PM on Tuesday 25 Nov 2014 (Local Time) from KHNB Reporting Station
Clear Clear  
Wind Chill: 23°   Ceiling: Unl
Heat Index: 30°   Visibility: 10mi
Dew Point: 25°   Wind: 7mph
Humidity: 80%   Direction: 360°N
Pressure: 30.22"   Gusts: NA
Location:  38.1675°N, 86.7159°W
Report Text: KHNB 260255Z AUTO 36006KT 10SM CLR M01/M04 A3022 RMK AO1 52010
Loading
Personal Weather Stations






























Interactive Weather Map New forecast layout! Learn more

10-Day Weather Forecast

Advertisements
Track Severe Weather on mobile